Time;durP1;ratioP1;P1;durP2;ratioP2;P2;SDS_P1;SDS_P2;PMS_P1;PMS_P2;Temp;Humidity;BMP_temperature;BMP_pressure;BME280_temperature;BME280_humidity;BME280_pressure;Samples;Min_cycle;Max_cycle;Signal;HPM_P1;HPM_P2
2021/08/14 00:02:15;;;;;;;9.35;6.80;;;16.90;99.90;;;;;;5042951;28;20033;-77
2021/08/14 00:04:41;;;;;;;9.15;6.63;;;16.80;99.90;;;;;;5047254;28;20102;-76
2021/08/14 00:07:06;;;;;;;10.70;7.50;;;16.70;99.90;;;;;;5047533;28;20079;-77
2021/08/14 00:09:35;;;;;;;8.25;6.90;;;16.70;99.90;;;;;;5047536;28;20056;-76
2021/08/14 00:12:02;;;;;;;11.55;7.63;;;16.80;99.90;;;;;;5043470;28;20025;-76
2021/08/14 00:14:28;;;;;;;9.93;6.88;;;16.80;99.90;;;;;;5039855;28;20051;-76
2021/08/14 00:16:54;;;;;;;9.13;7.30;;;16.80;99.90;;;;;;5036322;28;20021;-75
2021/08/14 00:19:19;;;;;;;8.80;7.32;;;16.80;99.90;;;;;;5050956;28;20078;-77
2021/08/14 00:21:45;;;;;;;9.05;7.00;;;16.70;99.90;;;;;;5046302;28;20036;-77
2021/08/14 00:24:11;;;;;;;8.75;7.32;;;16.70;99.90;;;;;;5040451;28;20119;-76
2021/08/14 00:26:37;;;;;;;7.53;6.75;;;16.70;99.90;;;;;;5047121;28;20025;-75
2021/08/14 00:29:03;;;;;;;8.88;5.95;;;16.70;99.90;;;;;;5046568;28;20052;-76
2021/08/14 00:31:29;;;;;;;10.20;7.13;;;16.70;99.90;;;;;;5051925;28;20163;-76
2021/08/14 00:33:55;;;;;;;10.57;7.03;;;16.70;99.90;;;;;;5046398;28;20044;-76
2021/08/14 00:36:21;;;;;;;10.60;6.88;;;16.70;99.90;;;;;;5046902;28;20029;-76
2021/08/14 00:38:47;;;;;;;14.38;6.30;;;16.70;99.90;;;;;;5044360;28;20823;-76
2021/08/14 00:41:12;;;;;;;8.43;6.05;;;16.70;99.90;;;;;;5047378;28;20084;-76
2021/08/14 00:43:39;;;;;;;8.43;7.05;;;16.70;99.90;;;;;;5049217;28;20047;-76
2021/08/14 00:46:05;;;;;;;10.13;7.15;;;16.70;99.90;;;;;;5049455;28;20510;-76
2021/08/14 00:48:31;;;;;;;9.15;7.47;;;16.70;99.90;;;;;;5039352;28;20108;-76
2021/08/14 00:50:58;;;;;;;7.43;6.28;;;16.70;99.90;;;;;;5036739;28;20035;-76
2021/08/14 00:53:24;;;;;;;8.88;6.80;;;16.70;99.90;;;;;;5039595;28;20067;-76
2021/08/14 00:55:51;;;;;;;10.05;6.30;;;16.70;99.90;;;;;;5040375;28;20082;-76
2021/08/14 00:58:17;;;;;;;8.48;5.93;;;16.70;99.90;;;;;;5048749;28;20017;-76
2021/08/14 01:00:43;;;;;;;6.88;5.70;;;16.70;99.90;;;;;;5043785;28;20071;-76
2021/08/14 01:03:09;;;;;;;8.15;6.35;;;16.70;99.90;;;;;;5045271;28;20025;-76
2021/08/14 01:05:37;;;;;;;11.77;6.20;;;16.70;99.90;;;;;;5045795;28;20029;-76
2021/08/14 01:08:04;;;;;;;9.77;6.75;;;16.70;99.90;;;;;;5047823;28;20070;-76
2021/08/14 01:10:31;;;;;;;9.98;6.50;;;16.70;99.90;;;;;;5046032;28;20026;-76
2021/08/14 01:12:57;;;;;;;9.60;6.47;;;16.70;99.90;;;;;;5041504;28;20026;-75
2021/08/14 01:15:22;;;;;;;8.80;5.93;;;16.70;99.90;;;;;;5041245;28;20032;-76
2021/08/14 01:17:49;;;;;;;11.35;6.60;;;16.70;99.90;;;;;;5045292;28;20071;-76
2021/08/14 01:20:15;;;;;;;7.38;5.82;;;16.70;99.90;;;;;;5044596;28;20037;-76
2021/08/14 01:22:41;;;;;;;7.93;5.78;;;16.70;99.90;;;;;;5048623;28;20391;-76
2021/08/14 01:25:10;;;;;;;6.40;5.68;;;16.90;99.90;;;;;;5041630;28;20033;-76
2021/08/14 01:27:39;;;;;;;7.28;5.65;;;16.90;99.90;;;;;;5041495;28;20025;-75
2021/08/14 01:30:06;;;;;;;9.23;6.05;;;16.90;99.90;;;;;;5039013;28;20536;-76
2021/08/14 01:32:32;;;;;;;7.88;6.25;;;17.00;99.90;;;;;;5038469;28;20018;-76
2021/08/14 01:34:59;;;;;;;6.70;6.00;;;17.00;99.90;;;;;;5050842;28;20022;-76
2021/08/14 01:37:26;;;;;;;8.80;6.47;;;16.90;99.90;;;;;;5054177;28;20504;-76
2021/08/14 01:39:52;;;;;;;13.00;6.85;;;16.90;99.90;;;;;;5049067;28;20029;-76
2021/08/14 01:42:17;;;;;;;9.07;6.22;;;16.90;99.90;;;;;;5045354;28;20103;-76
2021/08/14 01:44:44;;;;;;;9.00;5.90;;;16.90;99.90;;;;;;5049547;28;20043;-76
2021/08/14 01:47:10;;;;;;;8.60;5.22;;;16.90;99.90;;;;;;5050237;28;20021;-76
2021/08/14 01:49:36;;;;;;;7.13;6.18;;;16.90;99.90;;;;;;5052785;28;20039;-76
2021/08/14 01:52:15;;;;;;;12.38;6.38;;;16.90;99.90;;;;;;5051659;28;20063;-75
2021/08/14 01:54:41;;;;;;;9.93;6.05;;;16.90;99.90;;;;;;5062903;28;20082;-76
2021/08/14 01:57:08;;;;;;;7.18;6.20;;;16.90;99.90;;;;;;5048728;28;20120;-74
2021/08/14 01:59:34;;;;;;;7.68;5.82;;;17.00;99.90;;;;;;5045100;28;20086;-76
2021/08/14 02:02:01;;;;;;;9.88;6.15;;;16.90;99.90;;;;;;5050167;28;20029;-76
2021/08/14 02:04:27;;;;;;;8.55;5.80;;;17.00;99.90;;;;;;5044518;28;20021;-75
2021/08/14 02:06:52;;;;;;;8.77;5.88;;;17.00;99.90;;;;;;5047710;28;20119;-75
2021/08/14 02:09:18;;;;;;;8.10;5.68;;;17.00;99.90;;;;;;5048590;28;20123;-75
2021/08/14 02:11:44;;;;;;;7.25;6.43;;;17.00;99.90;;;;;;5049903;28;20029;-75
2021/08/14 02:14:11;;;;;;;12.80;6.88;;;16.90;99.90;;;;;;5048475;28;20022;-75
2021/08/14 02:16:37;;;;;;;6.95;5.20;;;17.00;99.90;;;;;;5053384;28;20090;-75
2021/08/14 02:19:03;;;;;;;6.90;5.90;;;17.00;99.90;;;;;;5054380;28;20100;-75
2021/08/14 02:21:29;;;;;;;7.50;6.28;;;17.00;99.90;;;;;;5048474;28;20126;-76
2021/08/14 02:23:56;;;;;;;7.95;5.60;;;17.00;99.90;;;;;;5047873;28;20087;-76
2021/08/14 02:26:22;;;;;;;8.43;6.18;;;16.90;99.90;;;;;;5041474;28;20025;-76
2021/08/14 02:28:48;;;;;;;10.07;5.82;;;16.90;99.90;;;;;;5051045;28;20032;-76
2021/08/14 02:31:14;;;;;;;7.57;5.75;;;16.90;99.90;;;;;;5051964;28;20108;-76
2021/08/14 02:33:39;;;;;;;7.53;6.13;;;16.90;99.90;;;;;;5047500;28;20043;-77
2021/08/14 02:36:06;;;;;;;11.43;6.20;;;16.90;99.90;;;;;;5047878;28;20033;-76
2021/08/14 02:38:34;;;;;;;9.63;5.82;;;16.90;99.90;;;;;;5047441;28;20112;-75
2021/08/14 02:41:01;;;;;;;10.98;6.00;;;16.90;99.90;;;;;;5049159;28;20032;-76
2021/08/14 02:43:27;;;;;;;14.48;6.10;;;16.90;99.90;;;;;;5041077;28;20030;-76
2021/08/14 02:45:53;;;;;;;9.32;6.40;;;16.90;99.90;;;;;;5048139;28;20021;-76
2021/08/14 02:48:18;;;;;;;8.63;6.38;;;16.90;99.90;;;;;;5047686;28;20025;-77
2021/08/14 02:50:46;;;;;;;11.25;6.15;;;16.90;99.90;;;;;;5050514;28;20021;-75
2021/08/14 02:53:12;;;;;;;7.68;6.07;;;16.90;99.90;;;;;;5048694;28;20025;-76
2021/08/14 02:55:40;;;;;;;9.60;6.20;;;16.80;99.90;;;;;;5041698;28;20022;-75
2021/08/14 02:58:05;;;;;;;9.90;6.80;;;16.80;99.90;;;;;;5051851;28;20098;-75
2021/08/14 03:00:31;;;;;;;9.32;6.00;;;16.80;99.90;;;;;;5048098;28;20053;-75
2021/08/14 03:02:57;;;;;;;11.25;6.13;;;16.80;99.90;;;;;;5049277;28;20104;-75
2021/08/14 03:05:23;;;;;;;7.68;5.90;;;16.80;99.90;;;;;;5043485;28;20165;-76
2021/08/14 03:07:49;;;;;;;8.82;6.00;;;16.80;99.90;;;;;;5048900;28;20104;-77
2021/08/14 03:10:15;;;;;;;7.35;5.68;;;16.80;99.90;;;;;;5040714;28;20041;-75
2021/08/14 03:12:40;;;;;;;8.30;6.53;;;16.80;99.90;;;;;;5046401;28;20024;-75
2021/08/14 03:15:07;;;;;;;9.80;6.40;;;16.90;99.90;;;;;;5046056;28;20485;-75
2021/08/14 03:17:33;;;;;;;9.50;6.13;;;16.90;99.90;;;;;;5048213;28;20420;-76
2021/08/14 03:20:01;;;;;;;9.63;6.15;;;16.90;99.90;;;;;;5043258;28;20021;-75
2021/08/14 03:22:27;;;;;;;8.10;6.90;;;16.90;99.90;;;;;;5049099;28;20029;-76
2021/08/14 03:24:52;;;;;;;8.85;6.05;;;16.90;99.90;;;;;;5047406;28;20029;-75
2021/08/14 03:27:18;;;;;;;9.20;6.00;;;16.80;99.90;;;;;;5040677;28;20730;-76
2021/08/14 03:29:44;;;;;;;10.02;6.60;;;16.90;99.90;;;;;;5037874;28;20032;-74
2021/08/14 03:32:09;;;;;;;11.02;6.80;;;16.90;99.90;;;;;;5047325;28;20025;-74
2021/08/14 03:34:35;;;;;;;10.23;6.35;;;16.90;99.90;;;;;;5044105;28;20498;-75
2021/08/14 03:37:01;;;;;;;13.43;6.95;;;16.80;99.90;;;;;;5048927;28;20552;-74
2021/08/14 03:39:26;;;;;;;9.63;6.15;;;16.90;99.90;;;;;;5047570;28;20408;-75
2021/08/14 03:41:52;;;;;;;10.48;6.30;;;16.90;99.90;;;;;;5047377;28;20028;-75
2021/08/14 03:44:17;;;;;;;9.13;6.50;;;16.90;99.90;;;;;;5044175;28;20823;-75
2021/08/14 03:46:43;;;;;;;8.55;6.05;;;16.90;99.90;;;;;;5049368;28;20417;-76
2021/08/14 03:49:09;;;;;;;9.15;5.90;;;17.00;99.90;;;;;;5050063;28;20156;-75
2021/08/14 03:51:35;;;;;;;8.00;5.93;;;17.00;99.90;;;;;;5042227;28;20481;-75
2021/08/14 03:54:00;;;;;;;10.65;6.65;;;17.00;99.90;;;;;;5046720;28;20025;-74
2021/08/14 03:56:26;;;;;;;9.95;6.82;;;17.10;99.90;;;;;;5045872;28;20465;-76
2021/08/14 03:58:51;;;;;;;7.03;6.10;;;17.10;99.90;;;;;;5048703;28;20382;-75
2021/08/14 04:01:18;;;;;;;7.25;6.20;;;17.10;99.90;;;;;;5050063;28;20616;-74
2021/08/14 04:03:43;;;;;;;8.68;6.07;;;17.20;99.90;;;;;;5047612;28;20033;-75
2021/08/14 04:06:09;;;;;;;8.93;6.32;;;17.20;99.90;;;;;;5043557;28;20036;-73
2021/08/14 04:08:35;;;;;;;13.70;6.53;;;17.30;99.90;;;;;;5047033;28;20024;-75
2021/08/14 04:11:05;;;;;;;9.10;6.32;;;17.30;99.90;;;;;;5035910;28;20474;-74
2021/08/14 04:13:30;;;;;;;7.97;6.20;;;17.30;99.90;;;;;;5051829;28;20147;-76
2021/08/14 04:15:56;;;;;;;9.18;6.38;;;17.40;99.90;;;;;;5045995;28;20504;-73
2021/08/14 04:18:22;;;;;;;8.88;7.00;;;17.50;99.90;;;;;;5047317;28;20027;-75
2021/08/14 04:20:47;;;;;;;9.82;6.88;;;17.60;99.90;;;;;;5044731;28;20571;-77
2021/08/14 04:23:13;;;;;;;8.95;6.43;;;17.80;99.90;;;;;;5046524;28;20033;-77
2021/08/14 04:25:39;;;;;;;8.30;6.95;;;18.10;99.90;;;;;;5049285;28;20107;-75
2021/08/14 04:28:04;;;;;;;10.15;6.65;;;18.20;99.90;;;;;;5046371;28;20029;-75
2021/08/14 04:30:30;;;;;;;8.50;6.75;;;18.20;99.90;;;;;;5043904;28;20514;-75
2021/08/14 04:32:55;;;;;;;11.45;6.93;;;18.30;99.90;;;;;;5038735;28;20104;-75
2021/08/14 04:35:21;;;;;;;11.43;6.75;;;18.30;99.90;;;;;;5043116;28;20033;-75
2021/08/14 04:37:47;;;;;;;9.43;6.25;;;18.30;99.90;;;;;;5039799;28;20036;-75
2021/08/14 04:40:14;;;;;;;9.02;6.70;;;18.40;99.90;;;;;;5043824;28;20159;-75
2021/08/14 04:42:41;;;;;;;10.63;7.32;;;18.50;99.90;;;;;;5046879;28;20482;-76
2021/08/14 04:45:09;;;;;;;7.53;6.50;;;18.60;99.90;;;;;;5045980;28;20025;-75
2021/08/14 04:47:35;;;;;;;9.70;6.80;;;18.70;99.90;;;;;;5048450;28;20031;-75
2021/08/14 04:50:01;;;;;;;14.02;7.18;;;18.80;99.90;;;;;;5043682;28;20025;-75
2021/08/14 04:52:26;;;;;;;8.25;6.47;;;18.90;99.90;;;;;;5048663;28;20021;-75
2021/08/14 04:54:52;;;;;;;9.25;7.05;;;19.00;99.90;;;;;;5046642;28;20025;-75
2021/08/14 04:57:18;;;;;;;9.35;6.75;;;19.10;99.90;;;;;;5043499;28;20479;-75
2021/08/14 04:59:43;;;;;;;9.73;6.18;;;19.20;99.90;;;;;;5038553;28;20405;-75
2021/08/14 05:02:09;;;;;;;12.30;7.40;;;19.30;99.90;;;;;;5048368;28;20520;-75
2021/08/14 05:04:35;;;;;;;11.57;6.90;;;19.40;99.90;;;;;;5047017;28;20029;-76
2021/08/14 05:07:00;;;;;;;14.05;6.82;;;19.40;99.90;;;;;;5044562;28;20029;-75
2021/08/14 05:09:27;;;;;;;8.68;6.70;;;19.60;99.90;;;;;;5046641;28;20371;-76
2021/08/14 05:11:53;;;;;;;9.68;6.45;;;19.60;99.90;;;;;;5047566;28;20428;-75
2021/08/14 05:14:19;;;;;;;11.13;6.97;;;19.70;99.90;;;;;;5047937;28;20131;-75
2021/08/14 05:16:44;;;;;;;14.27;6.63;;;19.80;99.90;;;;;;5050225;28;20092;-75
2021/08/14 05:19:10;;;;;;;7.15;5.57;;;20.00;99.90;;;;;;5049694;28;20033;-76
2021/08/14 05:21:36;;;;;;;9.57;7.20;;;20.20;99.90;;;;;;5046996;28;20081;-75
2021/08/14 05:24:03;;;;;;;7.90;6.47;;;20.40;99.90;;;;;;5047333;28;20039;-75
2021/08/14 05:26:29;;;;;;;11.85;7.25;;;20.40;99.90;;;;;;5042262;28;20025;-75
2021/08/14 05:28:55;;;;;;;12.95;6.53;;;20.50;99.90;;;;;;5047701;28;20528;-76
2021/08/14 05:31:21;;;;;;;9.63;6.15;;;20.60;99.90;;;;;;5050216;28;20025;-77
2021/08/14 05:33:46;;;;;;;11.10;6.78;;;20.60;99.90;;;;;;5045823;28;20031;-77
2021/08/14 05:36:12;;;;;;;9.48;6.30;;;20.70;99.90;;;;;;5042180;28;20034;-77
2021/08/14 05:38:38;;;;;;;9.32;6.65;;;20.60;99.90;;;;;;5046319;28;20811;-77
2021/08/14 05:41:05;;;;;;;10.45;6.25;;;20.60;99.90;;;;;;5049076;28;20037;-77
2021/08/14 05:43:32;;;;;;;10.63;6.75;;;20.70;99.90;;;;;;5051560;28;20029;-78
2021/08/14 05:45:58;;;;;;;8.68;6.43;;;20.70;99.90;;;;;;5039824;28;20041;-77
2021/08/14 05:48:24;;;;;;;10.88;6.63;;;20.70;99.90;;;;;;5041836;28;20357;-77
2021/08/14 05:50:49;;;;;;;8.07;6.28;;;20.90;99.90;;;;;;5046580;28;20029;-77
2021/08/14 05:53:17;;;;;;;9.30;6.90;;;21.00;99.90;;;;;;5045097;28;20056;-77
2021/08/14 05:55:43;;;;;;;9.55;6.85;;;21.20;99.90;;;;;;5049706;28;20036;-77
2021/08/14 05:58:08;;;;;;;9.35;6.00;;;21.20;99.90;;;;;;5047823;28;20394;-76
2021/08/14 06:00:34;;;;;;;8.07;6.10;;;21.30;99.90;;;;;;5045112;28;20050;-76
2021/08/14 06:02:59;;;;;;;10.48;6.90;;;21.30;99.90;;;;;;5045509;28;20024;-76
2021/08/14 06:05:25;;;;;;;8.82;6.80;;;21.30;99.90;;;;;;5045604;28;20056;-77
2021/08/14 06:07:51;;;;;;;7.32;5.70;;;21.30;99.90;;;;;;5046760;28;20040;-77
2021/08/14 06:10:18;;;;;;;10.23;6.18;;;21.50;99.90;;;;;;5050984;28;20010;-76
2021/08/14 06:12:44;;;;;;;8.07;5.88;;;21.60;99.90;;;;;;5048802;28;20029;-77
2021/08/14 06:15:11;;;;;;;11.93;6.25;;;21.70;99.90;;;;;;5046586;28;20099;-76
2021/08/14 06:17:37;;;;;;;10.23;7.00;;;21.80;99.90;;;;;;5036962;28;20028;-77
2021/08/14 06:20:04;;;;;;;10.27;6.40;;;21.90;99.90;;;;;;5041830;28;20027;-77
2021/08/14 06:22:30;;;;;;;7.47;6.22;;;21.90;99.90;;;;;;5053039;28;20032;-76
2021/08/14 06:24:56;;;;;;;9.52;6.63;;;22.00;99.90;;;;;;5045011;28;20030;-76
2021/08/14 06:27:22;;;;;;;12.23;6.07;;;22.00;99.90;;;;;;5044930;28;20035;-77
2021/08/14 06:29:48;;;;;;;10.15;6.38;;;22.10;99.90;;;;;;5049393;28;20145;-76
2021/08/14 06:32:13;;;;;;;7.82;6.20;;;22.30;99.90;;;;;;5050205;28;20067;-76
2021/08/14 06:34:39;;;;;;;11.23;6.97;;;22.40;99.90;;;;;;5049851;28;20029;-77
2021/08/14 06:37:06;;;;;;;12.25;6.32;;;22.50;99.90;;;;;;5040331;28;20032;-77
2021/08/14 06:39:31;;;;;;;10.13;6.90;;;22.60;99.90;;;;;;5044499;28;20021;-76
2021/08/14 06:41:57;;;;;;;14.55;6.40;;;22.70;99.90;;;;;;5048674;28;20048;-78
2021/08/14 06:44:23;;;;;;;9.23;6.72;;;22.70;99.90;;;;;;5050319;28;20556;-77
2021/08/14 06:46:49;;;;;;;12.35;7.38;;;22.70;99.90;;;;;;5048979;28;20025;-76
2021/08/14 06:49:14;;;;;;;11.95;7.22;;;22.70;99.90;;;;;;5049798;28;20546;-76
2021/08/14 06:51:40;;;;;;;14.73;7.15;;;22.60;99.90;;;;;;5049587;28;20036;-76
2021/08/14 06:54:06;;;;;;;9.27;6.40;;;22.60;99.90;;;;;;5051972;28;20389;-77
2021/08/14 06:56:32;;;;;;;10.77;6.68;;;22.60;99.90;;;;;;5049093;28;20031;-75
2021/08/14 06:58:58;;;;;;;9.63;7.07;;;22.70;99.90;;;;;;5047958;28;20190;-77
2021/08/14 07:01:23;;;;;;;10.15;6.93;;;22.70;99.90;;;;;;5052822;28;20146;-76
2021/08/14 07:03:49;;;;;;;8.70;6.82;;;22.70;99.90;;;;;;5051451;28;20390;-76
2021/08/14 07:06:25;;;;;;;11.68;7.95;;;22.80;99.90;;;;;;5045815;28;20056;-76
2021/08/14 07:08:51;;;;;;;10.27;6.88;;;22.90;99.90;;;;;;5052069;28;20072;-77
2021/08/14 07:11:19;;;;;;;9.95;6.65;;;23.00;99.90;;;;;;5047885;28;20026;-77
2021/08/14 07:13:46;;;;;;;9.40;6.88;;;23.00;99.90;;;;;;5050569;28;20021;-77
2021/08/14 07:16:11;;;;;;;8.95;7.50;;;23.10;99.90;;;;;;5047428;28;20363;-76
2021/08/14 07:18:37;;;;;;;10.93;7.78;;;23.20;99.90;;;;;;5048107;28;20100;-76
2021/08/14 07:21:03;;;;;;;10.55;7.25;;;23.30;99.90;;;;;;5047229;28;20040;-77
2021/08/14 07:23:29;;;;;;;9.52;6.75;;;23.30;99.90;;;;;;5048115;28;20032;-76
2021/08/14 07:25:55;;;;;;;10.48;7.53;;;23.40;99.90;;;;;;5048872;28;20037;-76
2021/08/14 07:28:20;;;;;;;11.93;7.68;;;23.50;99.90;;;;;;5051128;28;20052;-76
2021/08/14 07:30:47;;;;;;;10.80;6.75;;;23.70;99.90;;;;;;5045213;28;20501;-76
2021/08/14 07:33:14;;;;;;;9.07;6.32;;;23.80;99.90;;;;;;5051600;28;20033;-76
2021/08/14 07:35:40;;;;;;;8.88;6.82;;;23.80;99.90;;;;;;5048727;28;20100;-77
2021/08/14 07:38:06;;;;;;;7.50;6.25;;;23.90;99.90;;;;;;5048059;28;20270;-77
2021/08/14 07:40:32;;;;;;;14.52;7.15;;;24.10;99.90;;;;;;5035183;28;20075;-76
2021/08/14 07:42:58;;;;;;;9.38;7.32;;;24.20;99.90;;;;;;5047919;28;20108;-77
2021/08/14 07:45:24;;;;;;;12.77;7.32;;;24.30;99.90;;;;;;5048974;28;20072;-77
2021/08/14 07:47:51;;;;;;;13.80;7.20;;;24.40;99.90;;;;;;5049967;28;20033;-77
2021/08/14 07:50:28;;;;;;;10.40;7.10;;;24.50;99.90;;;;;;5050687;28;20036;-77
2021/08/14 07:52:55;;;;;;;8.75;7.35;;;24.50;99.90;;;;;;5043718;28;20033;-77
2021/08/14 07:55:22;;;;;;;11.10;7.47;;;24.60;99.90;;;;;;5041835;28;20029;-76
2021/08/14 07:57:48;;;;;;;9.98;6.65;;;24.60;99.90;;;;;;5047859;28;20021;-77
2021/08/14 08:00:16;;;;;;;10.75;7.47;;;24.60;99.90;;;;;;5046834;28;20053;-77
2021/08/14 08:02:43;;;;;;;11.65;7.40;;;24.70;99.90;;;;;;5049550;28;20115;-76
2021/08/14 08:05:11;;;;;;;9.95;7.65;;;24.70;99.90;;;;;;5050102;28;20115;-76
2021/08/14 08:07:37;;;;;;;10.52;7.13;;;24.70;99.90;;;;;;5052113;28;20768;-77
2021/08/14 08:10:14;;;;;;;14.32;7.65;;;24.70;99.90;;;;;;5050376;28;20024;-77
2021/08/14 08:12:40;;;;;;;10.52;7.55;;;24.70;99.90;;;;;;5049416;28;20021;-76
2021/08/14 08:15:08;;;;;;;8.30;7.50;;;24.90;99.90;;;;;;5050131;28;20028;-77
2021/08/14 08:17:33;;;;;;;10.85;7.30;;;24.90;99.90;;;;;;5052606;28;20512;-76
2021/08/14 08:19:59;;;;;;;12.52;7.38;;;24.90;99.90;;;;;;5049988;28;20033;-76
2021/08/14 08:22:25;;;;;;;10.43;6.95;;;25.10;99.90;;;;;;5050851;28;20382;-76
2021/08/14 08:24:51;;;;;;;10.32;7.47;;;25.10;99.90;;;;;;5050015;28;20385;-76
2021/08/14 08:27:17;;;;;;;14.93;7.72;;;25.00;99.90;;;;;;5046704;28;20037;-76
2021/08/14 08:29:43;;;;;;;10.43;7.97;;;25.00;99.90;;;;;;5049853;28;20060;-76
2021/08/14 08:32:09;;;;;;;11.32;8.05;;;25.10;99.90;;;;;;5051293;28;20385;-77
2021/08/14 08:34:35;;;;;;;8.52;7.47;;;25.10;99.90;;;;;;5052141;28;20017;-76
2021/08/14 08:37:02;;;;;;;12.50;7.28;;;25.10;99.90;;;;;;5048785;28;20021;-76
2021/08/14 08:39:28;;;;;;;12.38;7.88;;;25.30;99.90;;;;;;5044094;28;20075;-78
2021/08/14 08:41:56;;;;;;;13.73;8.40;;;25.30;99.90;;;;;;5045993;28;20510;-76
2021/08/14 08:44:22;;;;;;;13.63;7.80;;;25.40;99.90;;;;;;5049906;28;20112;-76
2021/08/14 08:46:48;;;;;;;10.18;7.07;;;25.60;99.90;;;;;;5049039;28;20124;-77
2021/08/14 08:49:17;;;;;;;11.45;8.05;;;25.60;99.90;;;;;;5048107;28;20096;-76
2021/08/14 08:51:43;;;;;;;9.23;7.85;;;25.70;99.90;;;;;;5049171;28;20029;-76
2021/08/14 08:54:12;;;;;;;9.75;7.65;;;25.80;99.90;;;;;;5043682;28;20891;-77
2021/08/14 08:56:38;;;;;;;11.13;8.32;;;25.90;99.90;;;;;;5044601;28;20072;-77
2021/08/14 08:59:03;;;;;;;13.15;8.15;;;25.90;99.90;;;;;;5046829;28;20067;-78
2021/08/14 09:01:30;;;;;;;8.77;7.88;;;25.90;99.90;;;;;;5051067;28;20486;-77
2021/08/14 09:04:18;;;;;;;8.55;7.50;;;25.90;99.90;;;;;;5046433;28;20033;-77
2021/08/14 09:06:44;;;;;;;11.13;8.05;;;26.00;99.90;;;;;;5045288;28;20102;-78
2021/08/14 09:09:11;;;;;;;10.30;8.32;;;26.00;99.90;;;;;;5050140;28;20425;-78
2021/08/14 09:11:48;;;;;;;14.15;7.70;;;26.00;99.90;;;;;;5048790;28;20492;-78
2021/08/14 09:14:13;;;;;;;9.40;8.00;;;26.10;99.90;;;;;;5033500;28;20116;-77
2021/08/14 09:16:39;;;;;;;13.02;7.75;;;26.00;99.90;;;;;;5049530;28;20063;-77
2021/08/14 09:19:05;;;;;;;10.68;8.80;;;26.00;99.90;;;;;;5050186;28;20482;-77
2021/08/14 09:21:34;;;;;;;12.32;8.07;;;26.10;99.90;;;;;;5047289;28;20029;-78
2021/08/14 09:24:04;;;;;;;;;;;26.20;99.90;;;;;;5050213;28;20021;-77
2021/08/14 09:26:33;;;;;;;9.93;8.05;;;26.30;99.90;;;;;;5045838;28;19908;-78
2021/08/14 09:29:06;;;;;;;10.93;7.78;;;26.40;99.90;;;;;;5049015;28;20036;-78
2021/08/14 09:31:50;;;;;;;10.15;7.22;;;26.60;99.90;;;;;;5048666;28;20033;-78
2021/08/14 09:34:20;;;;;;;12.00;7.45;;;26.70;99.90;;;;;;5049698;28;20024;-77
2021/08/14 09:37:06;;;;;;;11.02;7.80;;;26.80;99.90;;;;;;5045885;28;20032;-77
2021/08/14 09:39:47;;;;;;;10.32;7.57;;;26.70;99.90;;;;;;5046952;28;20560;-77
2021/08/14 09:42:13;;;;;;;10.75;7.85;;;26.90;99.90;;;;;;5043636;28;20036;-77
2021/08/14 09:44:39;;;;;;;12.73;7.82;;;26.80;99.90;;;;;;5045398;28;20032;-77
2021/08/14 09:47:09;;;;;;;9.88;7.85;;;26.80;99.90;;;;;;5049424;28;20032;-78
2021/08/14 09:49:53;;;;;;;10.18;8.40;;;26.90;99.90;;;;;;5040260;28;20120;-77
2021/08/14 09:52:25;;;;;;;8.20;7.25;;;27.00;99.90;;;;;;5051531;28;20025;-78
2021/08/14 09:54:52;;;;;;;13.68;7.88;;;27.00;99.90;;;;;;5050707;28;20029;-77
2021/08/14 09:57:19;;;;;;;10.40;7.63;;;27.00;99.90;;;;;;5048435;28;20108;-77
2021/08/14 09:59:46;;;;;;;13.35;8.32;;;27.10;99.90;;;;;;5052467;28;20095;-77
2021/08/14 10:02:23;;;;;;;10.68;7.88;;;27.00;99.90;;;;;;5052823;28;20040;-77
2021/08/14 10:04:50;;;;;;;11.02;7.65;;;27.10;99.90;;;;;;5046356;28;20036;-76
2021/08/14 10:07:17;;;;;;;8.18;6.72;;;27.00;99.90;;;;;;5052163;28;20044;-77
2021/08/14 10:09:44;;;;;;;11.02;7.40;;;27.10;99.90;;;;;;5050451;28;20024;-77
2021/08/14 10:12:11;;;;;;;10.90;7.88;;;27.30;99.90;;;;;;5041936;28;20112;-77
2021/08/14 10:14:41;;;;;;;7.95;7.15;;;27.40;99.90;;;;;;5048740;28;20025;-77
2021/08/14 10:17:08;;;;;;;12.27;7.57;;;27.50;99.90;;;;;;5049241;28;20386;-77
2021/08/14 10:19:34;;;;;;;9.38;7.60;;;27.50;99.90;;;;;;5050690;28;20028;-75
2021/08/14 10:22:00;;;;;;;9.25;6.70;;;27.70;99.90;;;;;;5048601;28;20068;-75
2021/08/14 10:24:33;;;;;;;11.77;8.18;;;27.80;99.90;;;;;;5049719;28;20070;-75
2021/08/14 10:27:08;;;;;;;11.02;8.13;;;27.90;99.90;;;;;;5053147;28;20032;-76
2021/08/14 10:29:46;;;;;;;11.52;7.63;;;28.00;99.90;;;;;;5053245;28;20039;-76
2021/08/14 10:32:31;;;;;;;7.82;6.72;;;27.90;99.90;;;;;;5053162;28;20025;-76
2021/08/14 10:35:12;;;;;;;8.85;7.22;;;27.90;99.90;;;;;;5052914;28;20039;-76
2021/08/14 10:37:42;;;;;;;9.85;7.18;;;28.00;99.90;;;;;;5053602;28;20017;-76
2021/08/14 10:40:08;;;;;;;;;;;28.10;99.90;;;;;;5053327;28;20031;-76
2021/08/14 10:42:57;;;;;;;11.70;6.80;;;28.20;99.90;;;;;;5047485;28;19920;-76
2021/08/14 10:45:33;;;;;;;;;;;28.20;99.90;;;;;;5053098;28;20110;-76
2021/08/14 10:48:04;;;;;;;10.13;6.63;;;28.00;99.90;;;;;;5052669;28;20007;-76
2021/08/14 10:50:33;;;;;;;10.55;7.30;;;28.00;99.90;;;;;;5048166;28;20029;-76
2021/08/14 10:53:10;;;;;;;9.65;6.75;;;28.10;99.90;;;;;;5045574;28;20438;-75
2021/08/14 10:55:41;;;;;;;9.70;6.68;;;28.10;99.90;;;;;;5047506;28;20035;-76
2021/08/14 10:58:25;;;;;;;8.65;6.70;;;28.20;99.90;;;;;;5051218;28;20033;-75
2021/08/14 11:01:11;;;;;;;15.50;7.90;;;28.40;99.70;;;;;;5051997;28;20138;-75
2021/08/14 11:03:38;;;;;;;8.93;7.07;;;28.30;99.30;;;;;;5049354;28;20111;-75
2021/08/14 11:06:27;;;;;;;7.95;6.82;;;28.30;98.60;;;;;;5051788;28;20540;-75
2021/08/14 11:09:17;;;;;;;10.50;6.33;;;28.40;98.30;;;;;;5050343;28;20040;-75
2021/08/14 11:11:57;;;;;;;8.65;5.43;;;28.40;97.00;;;;;;5049896;28;20469;-75
2021/08/14 11:14:40;;;;;;;6.60;5.82;;;28.40;97.50;;;;;;5052587;28;20493;-75
2021/08/14 11:17:06;;;;;;;8.57;6.57;;;28.40;95.90;;;;;;5052389;28;20069;-76
2021/08/14 11:19:50;;;;;;;11.50;7.43;;;28.40;95.30;;;;;;5053019;28;20029;-76
2021/08/14 11:22:21;;;;;;;7.53;6.32;;;28.40;95.50;;;;;;5052022;28;20485;-76
2021/08/14 11:24:48;;;;;;;10.02;6.32;;;28.40;97.10;;;;;;5048096;28;20025;-75
2021/08/14 11:27:32;;;;;;;8.40;6.32;;;28.50;97.00;;;;;;5047587;28;20036;-75
2021/08/14 11:30:00;;;;;;;7.45;5.97;;;28.70;96.50;;;;;;5050765;28;20096;-76
2021/08/14 11:32:27;;;;;;;13.65;6.88;;;28.70;96.90;;;;;;5052462;28;20029;-75
2021/08/14 11:34:54;;;;;;;8.82;6.55;;;28.70;95.90;;;;;;5049592;28;20075;-75
2021/08/14 11:37:20;;;;;;;8.68;7.05;;;28.80;95.30;;;;;;5052490;28;20048;-75
2021/08/14 11:39:45;;;;;;;8.98;6.97;;;28.70;93.80;;;;;;5051333;28;20498;-75
2021/08/14 11:42:12;;;;;;;10.50;6.93;;;28.80;94.10;;;;;;5051380;28;20486;-75
2021/08/14 11:44:38;;;;;;;10.45;6.40;;;28.90;94.50;;;;;;5052196;28;20053;-75
2021/08/14 11:47:06;;;;;;;9.38;6.28;;;28.90;93.80;;;;;;5051732;28;20381;-76
2021/08/14 11:49:55;;;;;;;7.65;6.28;;;28.90;93.40;;;;;;5048696;28;20013;-76
2021/08/14 11:52:25;;;;;;;7.55;6.85;;;29.00;94.00;;;;;;5033741;28;20021;-76
2021/08/14 11:54:59;;;;;;;9.75;6.50;;;29.20;94.30;;;;;;5042191;28;20548;-76
2021/08/14 11:57:34;;;;;;;10.32;6.70;;;29.20;93.50;;;;;;5050992;28;20017;-76
2021/08/14 12:00:05;;;;;;;8.80;7.50;;;29.30;93.50;;;;;;5050889;28;20068;-76
2021/08/14 12:02:31;;;;;;;9.05;6.38;;;29.30;93.60;;;;;;5051124;28;20029;-76
2021/08/14 12:04:57;;;;;;;8.93;7.05;;;29.30;92.40;;;;;;5051363;28;20364;-77
2021/08/14 12:07:23;;;;;;;10.60;6.13;;;29.30;92.30;;;;;;5052486;28;20029;-76
2021/08/14 12:09:50;;;;;;;9.88;7.55;;;29.40;92.50;;;;;;5034492;28;20056;-76
2021/08/14 12:12:18;;;;;;;10.35;7.30;;;29.50;91.40;;;;;;5035684;28;20029;-76
2021/08/14 12:14:44;;;;;;;7.45;6.72;;;29.50;92.30;;;;;;5044177;28;20021;-76
2021/08/14 12:17:09;;;;;;;7.47;5.82;;;29.40;92.10;;;;;;5044274;28;20032;-76
2021/08/14 12:19:49;;;;;;;7.78;6.68;;;29.40;91.50;;;;;;5041841;28;20033;-76
2021/08/14 12:22:16;;;;;;;17.40;7.78;;;29.40;91.40;;;;;;5038802;28;20040;-76
2021/08/14 12:24:44;;;;;;;11.73;6.57;;;29.40;91.30;;;;;;5042109;28;20116;-76
2021/08/14 12:27:33;;;;;;;11.55;6.88;;;29.40;91.80;;;;;;5034207;28;20550;-75
2021/08/14 12:30:41;;;;;;;11.15;7.57;;;29.20;90.70;;;;;;5044455;28;20033;-75
2021/08/14 12:33:26;;;;;;;9.32;6.97;;;29.20;91.40;;;;;;5015009;28;20033;-75
2021/08/14 12:36:09;;;;;;;7.28;6.00;;;29.30;91.10;;;;;;4993246;28;20030;-75
2021/08/14 12:38:47;;;;;;;8.32;6.95;;;29.40;91.00;;;;;;4994604;28;20105;-75
2021/08/14 12:41:14;;;;;;;9.43;7.07;;;29.50;92.40;;;;;;4992631;28;20042;-75
2021/08/14 12:43:47;;;;;;;8.15;6.80;;;29.50;91.10;;;;;;5000479;28;20065;-75
2021/08/14 12:46:20;;;;;;;8.40;7.57;;;29.50;91.10;;;;;;5002147;28;20053;-75
2021/08/14 12:49:19;;;;;;;7.90;7.10;;;29.50;90.20;;;;;;5008181;28;20033;-74